Time;durP1;ratioP1;P1;durP2;ratioP2;P2;SDS_P1;SDS_P2;PMS_P1;PMS_P2;Temp;Humidity;BMP_temperature;BMP_pressure;BME280_temperature;BME280_humidity;BME280_pressure;Samples;Min_cycle;Max_cycle;Signal;HPM_P1;HPM_P2
2022/10/19 00:01:40;;;;;;;6.88;0.73;;;12.50;99.90;;;;;;6308544;22;20003;-82
2022/10/19 00:04:06;;;;;;;6.60;1.33;;;12.60;99.90;;;;;;6308517;22;20022;-82
2022/10/19 00:06:33;;;;;;;7.05;0.85;;;12.60;99.90;;;;;;6308479;22;20419;-81
2022/10/19 00:09:04;;;;;;;5.28;0.70;;;12.60;99.90;;;;;;6308466;22;20015;-81
2022/10/19 00:11:31;;;;;;;7.82;0.80;;;12.50;99.90;;;;;;6308502;22;20042;-81
2022/10/19 00:13:58;;;;;;;5.32;0.90;;;12.50;99.90;;;;;;6308340;22;20015;-81
2022/10/19 00:16:29;;;;;;;7.55;1.27;;;12.40;99.90;;;;;;6308081;22;20030;-81
2022/10/19 00:18:59;;;;;;;8.35;1.30;;;12.40;99.90;;;;;;6280808;22;20015;-81
2022/10/19 00:21:25;;;;;;;6.63;0.63;;;12.30;99.90;;;;;;6307910;22;20320;-80
2022/10/19 00:23:51;;;;;;;9.77;1.48;;;12.40;99.90;;;;;;6307988;22;20037;-81
2022/10/19 00:26:17;;;;;;;5.72;0.70;;;12.40;99.90;;;;;;6280652;22;20072;-81
2022/10/19 00:28:43;;;;;;;4.95;0.80;;;12.30;99.90;;;;;;6308387;22;20038;-81
2022/10/19 00:31:13;;;;;;;7.05;0.75;;;12.30;99.90;;;;;;6308302;22;20060;-81
2022/10/19 00:33:40;;;;;;;6.50;1.00;;;12.40;99.90;;;;;;6280447;22;20324;-81
2022/10/19 00:36:32;;;;;;;5.93;0.70;;;12.40;99.90;;;;;;6308272;22;20027;-81
2022/10/19 00:38:58;;;;;;;5.68;1.02;;;12.30;99.90;;;;;;6308369;22;20011;-81
2022/10/19 00:41:27;;;;;;;6.35;0.80;;;12.40;99.90;;;;;;6280580;22;20023;-82
2022/10/19 00:44:00;;;;;;;4.68;0.80;;;12.40;99.90;;;;;;6307812;22;20465;-82
2022/10/19 00:46:27;;;;;;;5.70;1.30;;;12.40;99.90;;;;;;6308370;22;20011;-81
2022/10/19 00:49:05;;;;;;;5.03;0.90;;;12.30;99.90;;;;;;6307887;22;20051;-81
2022/10/19 00:51:33;;;;;;;8.43;0.88;;;12.30;99.90;;;;;;6308241;22;20090;-82
2022/10/19 00:54:01;;;;;;;4.80;0.57;;;12.30;99.90;;;;;;6308127;22;20015;-81
2022/10/19 00:56:27;;;;;;;4.95;0.85;;;12.30;99.90;;;;;;6307601;22;20443;-81
2022/10/19 00:58:53;;;;;;;7.72;0.82;;;12.30;99.90;;;;;;6308195;22;20098;-81
2022/10/19 01:01:22;;;;;;;6.82;0.73;;;12.30;99.90;;;;;;6308209;22;20046;-81
2022/10/19 01:03:48;;;;;;;8.45;0.55;;;12.20;99.90;;;;;;6307873;22;20098;-82
2022/10/19 01:06:15;;;;;;;6.95;0.73;;;12.30;99.90;;;;;;6282288;22;20046;-82
2022/10/19 01:08:41;;;;;;;5.65;1.08;;;12.30;99.90;;;;;;6310154;22;20016;-82
2022/10/19 01:12:00;;;;;;;6.82;1.50;;;12.30;99.90;;;;;;6282523;22;20019;-81
2022/10/19 01:14:34;;;;;;;7.70;1.02;;;12.30;99.90;;;;;;6185589;23;20059;-81
2022/10/19 01:17:03;;;;;;;7.68;1.02;;;12.40;99.90;;;;;;6307116;22;20046;-82
2022/10/19 01:20:11;;;;;;;7.30;1.27;;;12.40;99.90;;;;;;6282374;22;20335;-82
2022/10/19 01:22:39;;;;;;;11.35;1.25;;;12.40;99.90;;;;;;6282376;22;20090;-82
2022/10/19 01:25:31;;;;;;;8.25;1.40;;;12.40;99.90;;;;;;6282439;22;20102;-82
2022/10/19 01:28:31;;;;;;;11.65;1.10;;;12.50;99.90;;;;;;6282475;22;20042;-82
2022/10/19 01:31:02;;;;;;;10.25;1.25;;;12.50;99.90;;;;;;6309657;22;20478;-82
2022/10/19 01:33:41;;;;;;;12.68;1.58;;;12.50;99.90;;;;;;6282170;22;20023;-81
2022/10/19 01:36:21;;;;;;;5.07;0.70;;;12.50;99.90;;;;;;6309981;22;20016;-81
2022/10/19 01:39:20;;;;;;;6.85;0.77;;;12.40;99.90;;;;;;6310298;22;20439;-81
2022/10/19 01:41:56;;;;;;;9.18;1.70;;;12.30;99.90;;;;;;6309956;22;20015;-81
2022/10/19 01:44:27;;;;;;;10.48;1.42;;;12.30;99.90;;;;;;6309503;22;20443;-81
2022/10/19 01:47:03;;;;;;;10.35;1.25;;;12.30;99.90;;;;;;6309577;22;20308;-81
2022/10/19 01:49:32;;;;;;;7.38;1.05;;;12.30;99.90;;;;;;6282160;22;20015;-81
2022/10/19 01:52:03;;;;;;;10.50;1.30;;;12.30;99.90;;;;;;6309768;22;20069;-81
2022/10/19 01:54:34;;;;;;;7.03;1.05;;;12.30;99.90;;;;;;6282026;22;20030;-81
2022/10/19 01:57:03;;;;;;;6.32;0.80;;;12.30;99.90;;;;;;6309376;22;20039;-81
2022/10/19 01:59:31;;;;;;;8.45;1.45;;;12.20;99.90;;;;;;6309700;22;20011;-81
2022/10/19 02:01:57;;;;;;;9.25;1.30;;;12.20;99.90;;;;;;6309701;22;20018;-81
2022/10/19 02:04:24;;;;;;;5.55;0.80;;;12.20;99.90;;;;;;6309644;22;20019;-81
2022/10/19 02:06:52;;;;;;;7.65;1.45;;;12.20;99.90;;;;;;6281997;22;20443;-81
2022/10/19 02:09:19;;;;;;;8.20;1.50;;;12.20;99.90;;;;;;6309585;22;20011;-81
2022/10/19 02:11:52;;;;;;;7.30;1.38;;;12.20;99.90;;;;;;6309631;22;20015;-81
2022/10/19 02:14:19;;;;;;;;;;;12.20;99.90;;;;;;6310057;22;20051;-81
2022/10/19 02:16:50;;;;;;;7.15;1.08;;;12.10;99.90;;;;;;6281297;22;19914;-82
2022/10/19 02:19:17;;;;;;;11.73;1.52;;;12.20;99.90;;;;;;6309584;22;20080;-81
2022/10/19 02:21:42;;;;;;;7.72;1.00;;;12.10;99.90;;;;;;6281818;22;20015;-81
2022/10/19 02:24:08;;;;;;;8.98;1.60;;;12.20;99.90;;;;;;6281889;22;20092;-81
2022/10/19 02:26:34;;;;;;;6.57;1.40;;;12.20;99.90;;;;;;6281887;22;20019;-82
2022/10/19 02:28:59;;;;;;;6.32;1.48;;;12.20;99.90;;;;;;6309876;22;20343;-81
2022/10/19 02:31:26;;;;;;;11.88;1.70;;;12.30;99.90;;;;;;6309421;22;20011;-81
2022/10/19 02:33:52;;;;;;;7.93;1.00;;;12.30;99.90;;;;;;6309308;22;20019;-81
2022/10/19 02:36:18;;;;;;;8.27;1.08;;;12.30;99.90;;;;;;6309324;22;20015;-81
2022/10/19 02:38:44;;;;;;;8.88;1.08;;;12.30;99.90;;;;;;6281623;22;20038;-82
2022/10/19 02:41:37;;;;;;;6.55;0.75;;;12.40;99.90;;;;;;6309301;22;20435;-83
2022/10/19 02:44:10;;;;;;;11.23;1.00;;;12.30;99.90;;;;;;6281713;22;20023;-82
2022/10/19 02:46:53;;;;;;;7.35;1.20;;;12.30;99.90;;;;;;6281672;22;20324;-82
2022/10/19 02:49:19;;;;;;;4.65;0.75;;;12.30;99.90;;;;;;6308966;22;20015;-82
2022/10/19 02:52:00;;;;;;;6.40;1.20;;;12.20;99.90;;;;;;6308934;22;20019;-82
2022/10/19 02:54:27;;;;;;;8.88;1.20;;;12.20;99.90;;;;;;6281616;22;20343;-82
2022/10/19 02:56:52;;;;;;;7.45;0.95;;;12.10;99.90;;;;;;6281357;22;20017;-81
2022/10/19 02:59:18;;;;;;;6.93;1.45;;;12.10;99.90;;;;;;6309257;22;20030;-81
2022/10/19 03:01:43;;;;;;;5.45;0.93;;;12.10;99.90;;;;;;6309164;22;20016;-81
2022/10/19 03:04:09;;;;;;;10.10;0.95;;;12.00;99.90;;;;;;6309128;22;20015;-82
2022/10/19 03:06:35;;;;;;;9.93;1.00;;;12.00;99.90;;;;;;6309136;22;20012;-82
2022/10/19 03:09:00;;;;;;;5.65;1.08;;;12.00;99.90;;;;;;6309094;22;20366;-82
2022/10/19 03:11:26;;;;;;;5.55;1.00;;;11.90;99.90;;;;;;6281466;22;20023;-81
2022/10/19 03:13:51;;;;;;;6.07;1.25;;;11.90;99.90;;;;;;6308621;22;20046;-81
2022/10/19 03:16:17;;;;;;;5.03;1.27;;;11.80;99.90;;;;;;6308892;22;20023;-81
2022/10/19 03:18:43;;;;;;;9.60;1.48;;;11.80;99.90;;;;;;6308605;22;20015;-81
2022/10/19 03:21:11;;;;;;;5.70;1.15;;;11.80;99.90;;;;;;6308942;22;20015;-82
2022/10/19 03:23:37;;;;;;;6.35;1.35;;;11.80;99.90;;;;;;6308922;22;20007;-82
2022/10/19 03:26:04;;;;;;;7.32;1.13;;;11.80;99.90;;;;;;6308881;22;20015;-81
2022/10/19 03:28:30;;;;;;;7.45;1.15;;;11.70;99.90;;;;;;6308364;22;20041;-81
2022/10/19 03:30:56;;;;;;;5.82;0.93;;;11.70;99.90;;;;;;6308887;22;20011;-82
2022/10/19 03:33:22;;;;;;;11.20;1.08;;;11.70;99.90;;;;;;6309040;22;20316;-82
2022/10/19 03:35:47;;;;;;;6.40;1.15;;;11.70;99.90;;;;;;6308795;22;20015;-82
2022/10/19 03:38:13;;;;;;;4.63;0.90;;;11.60;99.90;;;;;;6281169;22;20025;-82
2022/10/19 03:40:39;;;;;;;7.57;1.20;;;11.60;99.90;;;;;;6308792;22;20446;-82
2022/10/19 03:43:04;;;;;;;7.78;1.00;;;11.60;99.90;;;;;;6281041;22;20346;-81
2022/10/19 03:45:30;;;;;;;12.10;1.10;;;11.60;99.90;;;;;;6281026;22;20023;-81
2022/10/19 03:47:56;;;;;;;9.73;1.10;;;11.60;99.90;;;;;;6281696;22;20016;-82
2022/10/19 03:50:21;;;;;;;5.93;1.60;;;11.60;99.90;;;;;;6308693;22;20023;-82
2022/10/19 03:52:48;;;;;;;8.20;1.40;;;11.60;99.90;;;;;;6308534;22;20019;-81
2022/10/19 03:55:15;;;;;;;9.13;1.13;;;11.60;99.90;;;;;;6308585;22;20019;-82
2022/10/19 03:57:41;;;;;;;9.95;1.67;;;11.60;99.90;;;;;;6280677;22;20015;-82
2022/10/19 04:00:09;;;;;;;9.60;1.15;;;11.60;99.90;;;;;;6308577;22;20072;-82
2022/10/19 04:02:34;;;;;;;9.18;1.17;;;11.60;99.90;;;;;;6280865;22;20070;-82
2022/10/19 04:05:00;;;;;;;6.80;1.40;;;11.60;99.90;;;;;;6308248;22;20394;-81
2022/10/19 04:07:26;;;;;;;7.75;1.20;;;11.60;99.90;;;;;;6280773;22;20022;-81
2022/10/19 04:09:51;;;;;;;7.18;1.55;;;11.60;99.90;;;;;;6281335;22;20370;-82
2022/10/19 04:12:17;;;;;;;7.45;1.10;;;11.60;99.90;;;;;;6280816;22;20466;-81
2022/10/19 04:14:43;;;;;;;11.32;1.70;;;11.50;99.90;;;;;;6280675;22;20015;-82
2022/10/19 04:17:09;;;;;;;10.40;1.00;;;11.50;99.90;;;;;;6308497;22;20045;-81
2022/10/19 04:19:35;;;;;;;8.65;1.23;;;11.50;99.90;;;;;;6307928;22;20313;-81
2022/10/19 04:22:01;;;;;;;9.93;1.40;;;11.30;99.90;;;;;;6307986;22;20022;-81
2022/10/19 04:24:27;;;;;;;10.63;1.58;;;11.40;99.90;;;;;;6308417;22;20019;-81
2022/10/19 04:26:54;;;;;;;5.32;1.05;;;11.40;99.90;;;;;;6280666;22;20025;-81
2022/10/19 04:29:21;;;;;;;9.75;1.73;;;11.30;99.90;;;;;;6280690;22;20058;-81
2022/10/19 04:31:49;;;;;;;7.18;1.23;;;11.30;99.90;;;;;;6308323;22;20132;-82
2022/10/19 04:34:15;;;;;;;8.18;1.00;;;11.20;99.90;;;;;;6308201;22;20015;-81
2022/10/19 04:36:40;;;;;;;12.20;2.00;;;11.20;99.90;;;;;;6280575;22;20078;-81
2022/10/19 04:39:07;;;;;;;5.60;0.93;;;11.20;99.90;;;;;;6280376;22;20053;-81
2022/10/19 04:41:33;;;;;;;8.23;1.58;;;11.20;99.90;;;;;;6308191;22;20011;-81
2022/10/19 04:44:01;;;;;;;11.95;1.55;;;11.20;99.90;;;;;;6308155;22;20019;-81
2022/10/19 04:46:28;;;;;;;10.00;1.23;;;11.20;99.90;;;;;;6308249;22;20098;-81
2022/10/19 04:48:56;;;;;;;10.48;1.25;;;11.20;99.90;;;;;;6308290;22;20008;-81
2022/10/19 04:51:22;;;;;;;6.20;1.05;;;11.20;99.90;;;;;;6308264;22;20082;-81
2022/10/19 04:53:48;;;;;;;7.18;1.50;;;11.20;99.90;;;;;;6307731;22;20086;-80
2022/10/19 04:56:20;;;;;;;9.38;1.10;;;11.10;99.90;;;;;;6307968;22;20015;-80
2022/10/19 04:58:46;;;;;;;9.20;1.42;;;11.10;99.90;;;;;;6308298;22;20019;-81
2022/10/19 05:01:18;;;;;;;9.13;1.80;;;11.10;99.90;;;;;;6308204;22;20022;-81
2022/10/19 05:03:44;;;;;;;7.30;1.02;;;11.10;99.90;;;;;;6307880;22;20098;-80
2022/10/19 05:06:10;;;;;;;11.18;1.20;;;11.00;99.90;;;;;;6280434;22;20317;-80
2022/10/19 05:08:36;;;;;;;7.97;1.40;;;11.00;99.90;;;;;;6280381;22;20406;-81
2022/10/19 05:11:04;;;;;;;4.60;1.13;;;11.00;99.90;;;;;;6308119;22;20016;-80
2022/10/19 05:13:31;;;;;;;6.63;1.10;;;11.10;99.90;;;;;;6307776;22;20019;-81
2022/10/19 05:15:58;;;;;;;4.93;0.80;;;11.10;99.90;;;;;;6307988;22;20019;-80
2022/10/19 05:18:24;;;;;;;9.10;1.35;;;11.10;99.90;;;;;;6280452;22;20026;-80
2022/10/19 05:20:50;;;;;;;8.77;1.63;;;11.10;99.90;;;;;;6308116;22;20012;-80
2022/10/19 05:23:15;;;;;;;7.20;1.27;;;11.10;99.90;;;;;;6308052;22;20338;-81
2022/10/19 05:25:41;;;;;;;8.55;0.98;;;11.10;99.90;;;;;;6308055;22;20011;-81
2022/10/19 05:28:06;;;;;;;10.43;1.20;;;11.00;99.90;;;;;;6307783;22;20071;-81
2022/10/19 05:30:32;;;;;;;10.18;1.45;;;11.00;99.90;;;;;;6308021;22;20022;-80
2022/10/19 05:32:58;;;;;;;6.47;1.27;;;11.00;99.90;;;;;;6307936;22;20100;-82
2022/10/19 05:35:23;;;;;;;7.93;1.38;;;11.10;99.90;;;;;;6308061;22;20023;-81
2022/10/19 05:37:54;;;;;;;4.88;0.90;;;11.10;99.90;;;;;;6307594;22;20019;-81
2022/10/19 05:40:19;;;;;;;8.38;1.15;;;11.10;99.90;;;;;;6308002;22;20034;-81
2022/10/19 05:42:45;;;;;;;8.25;1.55;;;11.10;99.90;;;;;;6307934;22;20431;-81
2022/10/19 05:45:11;;;;;;;9.75;1.30;;;11.10;99.90;;;;;;6308028;22;20018;-81
2022/10/19 05:47:36;;;;;;;6.78;0.60;;;11.10;99.90;;;;;;6307941;22;20018;-82
2022/10/19 05:50:02;;;;;;;8.90;1.42;;;11.10;99.90;;;;;;6280238;22;20022;-81
2022/10/19 05:52:28;;;;;;;7.53;1.00;;;11.10;99.90;;;;;;6309704;22;20489;-82
2022/10/19 05:54:55;;;;;;;7.60;0.80;;;11.10;99.90;;;;;;6309398;22;20023;-81
2022/10/19 05:57:20;;;;;;;6.43;1.00;;;11.20;99.90;;;;;;6281711;22;20011;-81
2022/10/19 05:59:46;;;;;;;7.15;1.10;;;11.20;99.90;;;;;;6281816;22;20332;-82
2022/10/19 06:02:14;;;;;;;9.55;1.08;;;11.20;99.90;;;;;;6281593;22;20469;-82
2022/10/19 06:04:40;;;;;;;5.57;1.00;;;11.20;99.90;;;;;;6281143;22;20019;-81
2022/10/19 06:07:06;;;;;;;8.98;1.00;;;11.20;99.90;;;;;;6279046;22;20071;-81
2022/10/19 06:09:34;;;;;;;4.45;0.82;;;11.10;99.90;;;;;;6279834;22;20404;-80
2022/10/19 06:12:01;;;;;;;8.00;1.10;;;11.10;99.90;;;;;;6281099;22;20047;-80
2022/10/19 06:14:26;;;;;;;9.05;1.17;;;11.20;99.90;;;;;;6308762;22;20023;-81
2022/10/19 06:16:52;;;;;;;5.75;0.70;;;11.10;99.90;;;;;;6281571;22;20081;-81
2022/10/19 06:19:18;;;;;;;6.88;0.93;;;11.20;99.90;;;;;;6308846;22;20386;-81
2022/10/19 06:21:44;;;;;;;5.60;0.80;;;11.20;99.90;;;;;;6309071;22;20018;-81
2022/10/19 06:24:10;;;;;;;8.85;1.05;;;11.20;99.90;;;;;;6309262;22;20019;-82
2022/10/19 06:26:35;;;;;;;6.03;0.70;;;11.20;99.90;;;;;;6308811;22;20041;-80
2022/10/19 06:29:02;;;;;;;7.38;1.60;;;11.20;99.90;;;;;;6308774;22;20311;-80
2022/10/19 06:31:34;;;;;;;5.13;1.05;;;11.20;99.90;;;;;;6281336;22;20050;-80
2022/10/19 06:34:00;;;;;;;10.80;0.85;;;11.20;99.90;;;;;;6308877;22;20011;-80
2022/10/19 06:36:27;;;;;;;6.53;0.80;;;11.20;99.90;;;;;;6281344;22;20452;-81
2022/10/19 06:38:53;;;;;;;6.32;1.00;;;11.30;99.90;;;;;;6281349;22;20030;-81
2022/10/19 06:41:19;;;;;;;9.25;1.40;;;11.30;99.90;;;;;;6281381;22;20320;-81
2022/10/19 06:43:50;;;;;;;6.63;1.00;;;11.20;99.90;;;;;;6281199;22;20026;-81
2022/10/19 06:46:19;;;;;;;6.60;0.80;;;11.30;99.90;;;;;;6281319;22;20517;-82
2022/10/19 06:48:57;;;;;;;4.32;0.70;;;11.30;99.90;;;;;;6308852;22;20014;-81
2022/10/19 06:51:25;;;;;;;6.32;0.85;;;11.30;99.90;;;;;;6281358;22;20019;-81
2022/10/19 06:53:51;;;;;;;5.90;0.73;;;11.30;99.90;;;;;;6281078;22;20023;-81
2022/10/19 06:56:17;;;;;;;5.28;1.27;;;11.30;99.90;;;;;;6280875;22;20385;-81
2022/10/19 06:58:43;;;;;;;6.32;1.20;;;11.30;99.90;;;;;;6281180;22;20435;-81
2022/10/19 07:01:11;;;;;;;7.65;1.35;;;11.30;99.90;;;;;;6281026;22;20012;-81
2022/10/19 07:03:37;;;;;;;5.72;0.82;;;11.30;99.90;;;;;;6280509;22;20019;-82
2022/10/19 07:06:06;;;;;;;8.15;1.20;;;11.40;99.90;;;;;;6281205;22;20019;-81
2022/10/19 07:08:33;;;;;;;5.78;1.77;;;11.40;99.90;;;;;;6281030;22;20462;-82
2022/10/19 07:11:01;;;;;;;8.30;1.33;;;11.40;99.90;;;;;;6308468;22;20019;-82
2022/10/19 07:13:29;;;;;;;7.60;0.90;;;11.40;99.90;;;;;;6279554;22;20012;-83
2022/10/19 07:16:02;;;;;;;8.70;1.30;;;11.40;99.90;;;;;;6308916;22;20011;-82
2022/10/19 07:18:28;;;;;;;8.57;0.63;;;11.40;99.90;;;;;;6281201;22;20011;-82
2022/10/19 07:20:58;;;;;;;7.30;1.05;;;11.40;99.90;;;;;;6281083;22;20022;-83
2022/10/19 07:23:26;;;;;;;8.60;1.02;;;11.40;99.90;;;;;;6308799;22;20012;-82
2022/10/19 07:25:53;;;;;;;10.35;1.10;;;11.50;99.90;;;;;;6280981;22;20011;-83
2022/10/19 07:28:20;;;;;;;9.25;1.13;;;11.50;99.90;;;;;;6308395;22;20398;-83
2022/10/19 07:30:49;;;;;;;6.82;1.08;;;11.50;99.90;;;;;;6281077;22;20015;-83
2022/10/19 07:33:15;;;;;;;6.72;1.17;;;11.50;99.90;;;;;;6280783;22;20051;-82
2022/10/19 07:35:40;;;;;;;10.88;0.98;;;11.50;99.90;;;;;;6281401;22;20026;-82
2022/10/19 07:38:06;;;;;;;8.73;0.93;;;11.60;99.90;;;;;;6307183;22;20026;-82
2022/10/19 07:40:32;;;;;;;9.60;1.10;;;11.60;99.90;;;;;;6280583;22;20022;-82
2022/10/19 07:42:57;;;;;;;8.45;1.08;;;11.60;99.90;;;;;;6281043;22;20520;-82
2022/10/19 07:45:23;;;;;;;8.20;1.63;;;11.60;99.90;;;;;;6280896;22;20015;-82
2022/10/19 07:47:49;;;;;;;7.57;0.85;;;11.60;99.90;;;;;;6308258;22;20064;-82
2022/10/19 07:50:14;;;;;;;9.10;0.90;;;11.60;99.90;;;;;;6308180;22;20022;-82
2022/10/19 07:52:40;;;;;;;9.00;1.15;;;11.60;99.90;;;;;;6280760;22;20026;-82
2022/10/19 07:55:06;;;;;;;6.15;0.52;;;11.70;99.90;;;;;;6280789;22;20027;-82
2022/10/19 07:57:32;;;;;;;9.60;1.38;;;11.70;99.90;;;;;;6280490;22;20023;-82
2022/10/19 07:59:57;;;;;;;8.13;1.55;;;11.70;99.90;;;;;;6307995;22;20165;-82
2022/10/19 08:02:23;;;;;;;6.90;1.20;;;11.70;99.90;;;;;;6307994;22;20011;-82
2022/10/19 08:04:49;;;;;;;6.70;0.90;;;11.70;99.90;;;;;;6280702;22;20446;-83
2022/10/19 08:07:15;;;;;;;10.27;1.00;;;11.80;99.90;;;;;;6280578;22;20390;-82
2022/10/19 08:09:41;;;;;;;5.95;0.80;;;11.80;99.90;;;;;;6280658;22;20011;-82
2022/10/19 08:12:07;;;;;;;7.05;1.15;;;11.80;99.90;;;;;;6308226;22;20096;-82
2022/10/19 08:14:33;;;;;;;9.93;1.42;;;11.80;99.90;;;;;;6280079;22;20026;-82
2022/10/19 08:16:59;;;;;;;6.45;0.95;;;11.80;99.90;;;;;;6307896;22;20478;-82
2022/10/19 08:19:25;;;;;;;12.48;1.13;;;11.90;99.90;;;;;;6308282;22;20015;-82
2022/10/19 08:21:50;;;;;;;7.93;0.90;;;11.90;99.90;;;;;;6308261;22;20036;-82
2022/10/19 08:24:18;;;;;;;18.15;1.35;;;11.90;99.90;;;;;;6280786;22;20087;-83
2022/10/19 08:26:44;;;;;;;7.22;0.95;;;12.00;99.90;;;;;;6280475;22;20019;-83
2022/10/19 08:29:16;;;;;;;9.40;1.17;;;12.00;99.90;;;;;;6308097;22;20060;-82
2022/10/19 08:31:43;;;;;;;10.48;1.25;;;12.00;99.90;;;;;;6308240;22;20019;-82
2022/10/19 08:34:09;;;;;;;8.27;1.13;;;12.10;99.90;;;;;;6307718;22;20413;-82
2022/10/19 08:36:35;;;;;;;6.72;0.75;;;12.10;99.90;;;;;;6308081;22;20016;-82
2022/10/19 08:39:07;;;;;;;4.78;0.80;;;12.10;99.90;;;;;;6280447;22;20020;-82
2022/10/19 08:41:54;;;;;;;7.55;0.85;;;12.10;99.90;;;;;;6308188;22;20015;-83
2022/10/19 08:44:40;;;;;;;10.68;1.10;;;12.10;99.90;;;;;;6280499;22;20068;-82
2022/10/19 08:47:34;;;;;;;6.03;1.17;;;12.20;99.90;;;;;;6307880;22;20030;-82
2022/10/19 08:50:00;;;;;;;10.32;1.00;;;12.20;99.90;;;;;;6280436;22;20022;-82
2022/10/19 08:52:35;;;;;;;9.85;1.75;;;12.20;99.90;;;;;;6280434;22;20020;-82
2022/10/19 08:55:11;;;;;;;8.50;1.20;;;12.20;99.90;;;;;;6307966;22;20026;-82
2022/10/19 08:57:56;;;;;;;6.63;1.50;;;12.20;99.90;;;;;;6307350;22;20058;-82
2022/10/19 09:00:47;;;;;;;10.30;0.98;;;12.30;99.90;;;;;;6307656;22;20512;-82
2022/10/19 09:03:22;;;;;;;6.45;1.30;;;12.30;99.90;;;;;;6307773;22;20466;-82
2022/10/19 09:06:07;;;;;;;6.30;0.70;;;12.50;99.90;;;;;;6308185;22;20140;-82
2022/10/19 09:08:37;;;;;;;5.63;1.05;;;12.40;99.90;;;;;;6307807;22;20055;-82
2022/10/19 09:11:03;;;;;;;11.50;2.25;;;12.50;99.90;;;;;;6307984;22;20068;-83
2022/10/19 09:13:44;;;;;;;12.48;2.10;;;12.50;99.90;;;;;;6307935;22;20090;-82
2022/10/19 09:16:16;;;;;;;9.57;1.95;;;12.50;99.90;;;;;;6280452;22;20015;-82
2022/10/19 09:18:54;;;;;;;7.45;1.20;;;12.50;99.90;;;;;;6308032;22;20014;-83
2022/10/19 09:21:24;;;;;;;6.90;1.35;;;12.60;99.90;;;;;;6280273;22;20023;-82
2022/10/19 09:24:06;;;;;;;7.53;1.38;;;12.60;99.90;;;;;;6308113;22;20038;-82
2022/10/19 09:27:04;;;;;;;8.68;1.42;;;12.60;99.90;;;;;;6281319;22;20007;-82
2022/10/19 09:29:38;;;;;;;6.55;0.98;;;12.70;99.90;;;;;;6242251;22;20486;-82
2022/10/19 09:32:11;;;;;;;8.73;1.33;;;12.80;99.90;;;;;;6309598;22;20024;-83
2022/10/19 09:35:01;;;;;;;7.03;1.02;;;12.80;99.90;;;;;;6282081;22;20473;-82
2022/10/19 09:37:28;;;;;;;7.50;1.13;;;12.90;99.90;;;;;;6281925;22;20034;-82
2022/10/19 09:39:55;;;;;;;8.30;1.58;;;12.90;99.90;;;;;;6282077;22;20011;-82
2022/10/19 09:42:25;;;;;;;6.72;1.15;;;12.90;99.90;;;;;;6282040;22;20077;-82
2022/10/19 09:44:53;;;;;;;5.80;1.67;;;12.90;99.90;;;;;;6309927;22;20013;-82
2022/10/19 09:47:39;;;;;;;5.15;0.82;;;12.90;99.90;;;;;;6282128;22;20110;-82
2022/10/19 09:50:25;;;;;;;8.98;1.20;;;13.00;99.90;;;;;;6309912;22;20045;-82
2022/10/19 09:52:56;;;;;;;7.57;1.17;;;13.00;99.90;;;;;;6309978;22;20019;-84
2022/10/19 09:55:34;;;;;;;8.50;1.00;;;13.20;99.90;;;;;;6282012;22;20047;-83
2022/10/19 09:58:15;;;;;;;5.38;1.23;;;13.10;99.90;;;;;;6281684;22;20022;-82
2022/10/19 10:00:53;;;;;;;5.55;0.90;;;13.10;99.90;;;;;;6281849;22;20026;-83
2022/10/19 10:03:30;;;;;;;7.25;1.02;;;13.10;99.90;;;;;;6309500;22;20015;-84
2022/10/19 10:06:15;;;;;;;11.95;1.50;;;13.10;99.90;;;;;;6281802;22;20068;-83
2022/10/19 10:08:57;;;;;;;5.88;1.20;;;13.20;99.90;;;;;;6281801;22;20015;-83
2022/10/19 10:11:28;;;;;;;7.88;0.98;;;13.10;99.90;;;;;;6281897;22;20023;-82
2022/10/19 10:13:59;;;;;;;7.55;1.20;;;13.20;99.90;;;;;;6309438;22;20015;-82
2022/10/19 10:16:33;;;;;;;7.80;1.10;;;13.20;99.90;;;;;;6282019;22;20022;-83
2022/10/19 10:19:11;;;;;;;7.47;1.45;;;13.20;99.90;;;;;;6281845;22;20033;-85
2022/10/19 10:21:53;;;;;;;8.80;1.10;;;13.20;99.90;;;;;;6309061;22;20458;-84
2022/10/19 10:24:51;;;;;;;6.70;1.88;;;13.30;99.90;;;;;;6309261;22;20484;-84
2022/10/19 10:27:35;;;;;;;10.10;1.63;;;13.30;99.90;;;;;;6259172;22;20019;-83
2022/10/19 10:30:07;;;;;;;6.43;1.20;;;13.30;99.90;;;;;;6281822;22;20450;-84
2022/10/19 10:32:38;;;;;;;7.57;1.27;;;13.30;99.90;;;;;;6309545;22;20514;-83
2022/10/19 10:35:15;;;;;;;7.97;1.55;;;13.40;99.90;;;;;;6281608;22;20094;-82
2022/10/19 10:37:46;;;;;;;7.68;1.00;;;13.40;99.90;;;;;;6281073;22;20383;-83
2022/10/19 10:40:28;;;;;;;8.18;1.27;;;13.50;99.90;;;;;;6308991;22;20462;-84
2022/10/19 10:43:12;;;;;;;9.80;1.30;;;13.50;99.90;;;;;;6281651;22;20094;-82
2022/10/19 10:45:50;;;;;;;6.05;1.20;;;13.60;99.90;;;;;;6281615;22;20015;-82
2022/10/19 10:48:30;;;;;;;4.70;1.15;;;13.50;99.90;;;;;;6309325;22;20011;-83
2022/10/19 10:50:58;;;;;;;6.55;1.20;;;13.50;99.90;;;;;;6281824;22;20025;-83
2022/10/19 10:53:34;;;;;;;7.68;1.30;;;13.50;99.90;;;;;;6281245;22;20351;-84
2022/10/19 10:56:05;;;;;;;8.77;1.20;;;13.50;99.90;;;;;;6308785;22;20026;-83
2022/10/19 10:58:37;;;;;;;7.05;0.85;;;13.60;99.90;;;;;;6281503;22;20470;-83
2022/10/19 11:01:12;;;;;;;8.32;1.63;;;13.70;99.90;;;;;;6281607;22;20023;-82
2022/10/19 11:03:45;;;;;;;9.88;1.63;;;13.70;99.90;;;;;;6309049;22;20508;-82
2022/10/19 11:06:15;;;;;;;7.53;1.55;;;13.80;99.90;;;;;;6281388;22;20018;-82
2022/10/19 11:08:58;;;;;;;7.90;1.23;;;13.80;99.90;;;;;;6281554;22;20090;-83
2022/10/19 11:11:34;;;;;;;8.90;1.40;;;13.80;99.90;;;;;;6309146;22;20099;-82
2022/10/19 11:14:23;;;;;;;5.68;0.90;;;13.80;99.90;;;;;;6281139;22;20015;-82
2022/10/19 11:16:52;;;;;;;10.27;1.38;;;13.80;99.90;;;;;;6281296;22;20076;-82
2022/10/19 11:19:29;;;;;;;7.13;1.00;;;13.80;99.90;;;;;;6281318;22;20015;-83
2022/10/19 11:22:17;;;;;;;4.80;1.00;;;13.80;99.90;;;;;;6281285;22;20019;-82
2022/10/19 11:25:15;;;;;;;8.43;1.00;;;14.00;99.90;;;;;;6307041;22;20015;-82
2022/10/19 11:28:17;;;;;;;6.30;0.77;;;14.20;99.90;;;;;;6308455;22;20081;-82
2022/10/19 11:31:00;;;;;;;7.38;0.88;;;14.30;99.90;;;;;;6281224;22;20049;-84
2022/10/19 11:33:26;;;;;;;;;;;14.40;99.90;;;;;;6281590;22;20015;-83
2022/10/19 11:36:07;;;;;;;8.15;1.00;;;14.20;99.90;;;;;;6281346;22;19915;-83
2022/10/19 11:38:51;;;;;;;6.95;1.00;;;14.20;99.90;;;;;;6281303;22;20045;-83
2022/10/19 11:41:26;;;;;;;6.45;1.10;;;14.10;99.90;;;;;;6281361;22;20351;-83
2022/10/19 11:44:23;;;;;;;5.07;0.93;;;14.10;99.90;;;;;;6281105;22;20019;-83
2022/10/19 11:46:59;;;;;;;9.80;1.30;;;14.20;99.90;;;;;;6281322;22;20011;-83
2022/10/19 11:49:43;;;;;;;9.35;0.93;;;14.10;99.90;;;;;;6308337;22;20389;-82
2022/10/19 11:52:16;;;;;;;11.85;1.20;;;14.00;99.90;;;;;;6308866;22;20015;-83
2022/10/19 11:55:07;;;;;;;6.00;0.75;;;13.90;99.90;;;;;;6281255;22;20347;-83
2022/10/19 11:58:10;;;;;;;7.18;1.15;;;13.90;99.90;;;;;;6280480;22;20386;-83
2022/10/19 12:00:45;;;;;;;;;;;13.80;99.90;;;;;;6309261;22;20015;-82
2022/10/19 12:03:59;;;;;;;9.77;1.45;;;13.70;99.90;;;;;;6280753;22;19918;-82
2022/10/19 12:06:37;;;;;;;10.55;1.30;;;13.80;99.90;;;;;;6297454;22;20061;-83
2022/10/19 12:09:11;;;;;;;7.20;0.93;;;13.80;99.90;;;;;;6281378;22;20019;-83
2022/10/19 12:12:01;;;;;;;6.85;1.08;;;13.80;99.90;;;;;;6281287;22;20061;-84
2022/10/19 12:14:35;;;;;;;4.93;0.80;;;13.80;99.90;;;;;;6280941;22;20080;-84
2022/10/19 12:17:13;;;;;;;7.20;1.00;;;13.80;99.90;;;;;;6280943;22;20015;-84
2022/10/19 12:19:51;;;;;;;6.28;1.10;;;13.90;99.90;;;;;;6308376;22;20011;-84
2022/10/19 12:22:22;;;;;;;2.42;0.65;;;13.80;99.90;;;;;;6308581;22;20014;-84
2022/10/19 12:24:54;;;;;;;5.53;1.10;;;13.90;99.90;;;;;;6308631;22;20015;-83
2022/10/19 12:27:31;;;;;;;4.65;0.80;;;13.90;99.90;;;;;;6308545;22;20011;-82
2022/10/19 12:30:11;;;;;;;4.85;1.13;;;14.00;99.90;;;;;;6280539;22;20347;-84
2022/10/19 12:33:05;;;;;;;9.48;1.23;;;14.00;99.90;;;;;;6281361;22;20019;-82
2022/10/19 12:35:54;;;;;;;10.25;1.30;;;14.00;99.90;;;;;;6291401;22;20015;-82
2022/10/19 12:38:57;;;;;;;7.03;1.13;;;13.90;99.90;;;;;;6280956;22;20019;-82
2022/10/19 12:41:31;;;;;;;6.57;1.48;;;13.90;99.90;;;;;;6280602;22;20090;-82
2022/10/19 12:44:24;;;;;;;12.50;1.50;;;13.80;99.90;;;;;;6280608;22;20451;-82
2022/10/19 12:46:52;;;;;;;;;;;13.80;99.90;;;;;;6308319;22;20023;-82
2022/10/19 12:49:44;;;;;;;8.73;1.33;;;13.80;99.90;;;;;;6280587;22;19915;-83
2022/10/19 12:52:11;;;;;;;7.22;1.75;;;13.90;99.90;;;;;;6280417;22;20047;-83
2022/10/19 12:54:39;;;;;;;7.10;1.65;;;14.00;99.90;;;;;;6280842;22;20019;-84
2022/10/19 12:57:27;;;;;;;6.65;1.40;;;14.10;99.90;;;;;;6307609;22;20019;-83
2022/10/19 12:59:59;;;;;;;7.38;1.20;;;14.10;99.90;;;;;;6280179;22;20435;-83
2022/10/19 13:02:32;;;;;;;8.88;1.95;;;14.00;99.90;;;;;;6310379;22;20011;-83
2022/10/19 13:04:59;;;;;;;7.97;1.70;;;14.00;99.90;;;;;;6282704;22;20038;-82
2022/10/19 13:07:26;;;;;;;7.72;1.30;;;14.10;99.90;;;;;;6310375;22;20466;-83
2022/10/19 13:10:04;;;;;;;8.55;1.00;;;14.10;99.90;;;;;;6309894;22;20455;-84